• Join FlightAware (Why Join?)
  • Login
  • US Flag 
09:50AM EST


 

Airport Tracker/Info


-or-


 

Live Flight TrackerFlight Track Log ✈ UPS214 ✈ 12-Nov-2013 ✈ EDDK / CGN - KSDF

Flight Track Log - Related Links

Times and Time Zones

All times are in EST time to prevent confusion due to time zone crossing. See the UPS214 flight status page for this flight to view local times or setup timezone preferences in your user account.

Time Position Orientation Groundspeed Altitude Reporting Facility
EST Latitude Longitude Course Direction KTS MPH feet Rate Location/Type
05:49PM 56.0156 -20.7596 253° West  Level Estimated
05:50PM 56.0650 -20.9601 294° West  Level FlightAware Approximate
05:51PM 56.1141 -21.1612 294° West  Level FlightAware Approximate
05:52PM 56.1628 -21.3627 294° West  Level FlightAware Approximate
05:53PM 56.2112 -21.5648 293° West  Level FlightAware Approximate
05:54PM 56.2593 -21.7674 293° West  Level FlightAware Approximate
05:55PM 56.3071 -21.9705 293° West  Level FlightAware Approximate
05:56PM 56.3545 -22.1741 293° West  Level FlightAware Approximate
05:57PM 56.3632 -22.3946 249° West  Level Estimated
05:58PM 56.4057 -22.6019 290° West  Level FlightAware Approximate
05:59PM 56.4479 -22.8098 290° West  Level FlightAware Approximate
06:00PM 56.4897 -23.0181 290° West  Level FlightAware Approximate
06:01PM 56.5312 -23.2268 290° West  Level FlightAware Approximate
06:02PM 56.5724 -23.4360 290° West  Level FlightAware Approximate
06:03PM 56.6132 -23.6457 290° West  Level FlightAware Approximate
06:04PM 56.6536 -23.8558 289° West  Level FlightAware Approximate
06:05PM 56.6937 -24.0664 289° West  Level FlightAware Approximate
06:06PM 56.7334 -24.2774 289° West  Level FlightAware Approximate
06:07PM 56.7728 -24.4889 289° West  Level FlightAware Approximate
06:08PM 56.8118 -24.7008 289° West  Level FlightAware Approximate
06:09PM 56.8504 -24.9131 288° West  Level FlightAware Approximate
06:09PM 58.0000 -20.0000 295° West 451 519 32,000  Level ETMS Enhanced Traffic Management System
06:09PM 58.0000 -20.0000 295° West 451 519 32,000  Level ETMS Enhanced Traffic Management System
06:10PM 56.8887 -25.1259 288° West  Level FlightAware Approximate
06:11PM 56.9267 -25.3391 288° West  Level FlightAware Approximate
06:12PM 56.9642 -25.5527 288° West  Level FlightAware Approximate
06:13PM 57.0014 -25.7668 288° West  Level FlightAware Approximate
06:14PM 57.0383 -25.9813 288° West  Level FlightAware Approximate
06:15PM 58.3170 -21.2936 294° West 451 519 32,000  Level FlightAware Transoceanic
06:16PM 58.3685 -21.5115 294° West 451 519 32,000  Level FlightAware Transoceanic
06:17PM 58.4197 -21.7300 294° West 451 519 32,000  Level FlightAware Transoceanic
06:18PM 58.4705 -21.9491 294° West 451 519 32,000  Level FlightAware Transoceanic
06:19PM 58.5210 -22.1688 294° West 451 519 32,000  Level FlightAware Transoceanic
06:20PM 58.5710 -22.3892 293° West 451 519 32,000  Level FlightAware Transoceanic
06:21PM 58.6207 -22.6102 293° West 451 519 32,000  Level FlightAware Transoceanic
06:22PM 58.6700 -22.8318 293° West 451 519 32,000  Level FlightAware Transoceanic
06:23PM 58.7189 -23.0541 293° West 451 519 32,000  Level FlightAware Transoceanic
06:24PM 58.7674 -23.2770 293° West 451 519 32,000  Level FlightAware Transoceanic
06:25PM 58.8156 -23.5005 292° West 451 519 32,000  Level FlightAware Transoceanic
06:26PM 58.8633 -23.7246 292° West 451 519 32,000  Level FlightAware Transoceanic
06:27PM 58.9107 -23.9493 292° West 451 519 32,000  Level FlightAware Transoceanic
06:28PM 58.9577 -24.1747 292° West 451 519 32,000  Level FlightAware Transoceanic
06:29PM 59.0043 -24.4006 292° West 451 519 32,000  Level FlightAware Transoceanic
06:30PM 59.0505 -24.6272 292° West 451 519 32,000  Level FlightAware Transoceanic
06:31PM 59.0963 -24.8544 291° West 451 519 32,000  Level FlightAware Transoceanic
06:32PM 59.1417 -25.0822 291° West 451 519 32,000  Level FlightAware Transoceanic
06:33PM 59.1867 -25.3106 291° West 451 519 32,000  Level FlightAware Transoceanic
06:34PM 59.2313 -25.5395 291° West 451 519 32,000  Level FlightAware Transoceanic
06:35PM 59.2755 -25.7691 291° West 451 519 32,000  Level FlightAware Transoceanic
06:36PM 59.3192 -25.9993 290° West 451 519 32,000  Level FlightAware Transoceanic
06:37PM 59.3626 -26.2301 290° West 451 519 32,000  Level FlightAware Transoceanic
06:38PM 59.4056 -26.4614 290° West 451 519 32,000  Level FlightAware Transoceanic
06:39PM 59.4482 -26.6934 290° West 451 519 32,000  Level FlightAware Transoceanic
06:40PM 59.4903 -26.9259 290° West 451 519 32,000  Level FlightAware Transoceanic
06:41PM 59.5321 -27.1590 289° West 451 519 32,000  Level FlightAware Transoceanic
06:42PM 59.5734 -27.3927 289° West 451 519 32,000  Level FlightAware Transoceanic
06:43PM 59.6143 -27.6269 289° West 451 519 32,000  Level FlightAware Transoceanic
06:44PM 59.6548 -27.8617 289° West 451 519 32,000  Level FlightAware Transoceanic
06:45PM 59.6948 -28.0971 289° West 451 519 32,000  Level FlightAware Transoceanic
06:46PM 59.7345 -28.3330 288° West 451 519 32,000  Level FlightAware Transoceanic
06:47PM 59.7737 -28.5695 288° West 451 519 32,000  Level FlightAware Transoceanic
06:48PM 59.8125 -28.8066 288° West 451 519 32,000  Level FlightAware Transoceanic
06:49PM 59.8508 -29.0442 288° West 451 519 32,000  Level FlightAware Transoceanic
06:50PM 59.8888 -29.2823 288° West 451 519 32,000  Level FlightAware Transoceanic
06:51PM 59.9263 -29.5210 287° West 451 519 32,000  Level FlightAware Transoceanic
06:52PM 59.9634 -29.7602 287° West 451 519 32,000  Level FlightAware Transoceanic
06:53PM 59.9991 -29.9943 287° West  Level FlightAware Approximate
06:54PM 60.0346 -30.2288 287° West  Level FlightAware Approximate
06:55PM 60.0083 -30.2324 274° West  Level FlightAware Approximate
06:56PM 60.0166 -30.4768 274° West  Level FlightAware Approximate
06:57PM 60.0244 -30.7213 274° West  Level FlightAware Approximate
06:58PM 60.0318 -30.9659 274° West  Level FlightAware Approximate
06:59PM 60.0387 -31.2107 273° West  Level FlightAware Approximate
07:00PM 60.0452 -31.4555 273° West  Level FlightAware Approximate
07:01PM 60.0513 -31.7004 273° West  Level FlightAware Approximate
07:02PM 60.0572 -31.9454 273° West  Level FlightAware Approximate
07:03PM 60.0627 -32.1905 273° West  Level FlightAware Approximate
07:04PM 60.0677 -32.4356 272° West  Level FlightAware Approximate
07:05PM 60.0723 -32.6809 272° West  Level FlightAware Approximate
07:06PM 60.0765 -32.9261 272° West  Level FlightAware Approximate
07:07PM 60.0801 -33.1715 272° West  Level FlightAware Approximate
07:08PM 60.0834 -33.4169 272° West  Level FlightAware Approximate
07:09PM 60.0861 -33.6623 271° West  Level FlightAware Approximate
07:10PM 60.0884 -33.9078 271° West  Level FlightAware Approximate
07:11PM 60.0903 -34.1533 271° West  Level FlightAware Approximate
07:12PM 60.0917 -34.3988 271° West  Level FlightAware Approximate
07:13PM 60.0927 -34.6443 271° West  Level FlightAware Approximate
07:14PM 60.0931 -34.8899 270° West  Level FlightAware Approximate
07:15PM 60.0932 -35.1355 270° West  Level FlightAware Approximate
07:16PM 60.0928 -35.3810 270° West  Level FlightAware Approximate
07:17PM 60.0919 -35.6266 270° West  Level FlightAware Approximate
07:18PM 60.0906 -35.8721 269° West  Level FlightAware Approximate
07:18PM 60.1000 -36.3833 268° West 460 529 32,100  Level Gander Center
07:19PM 60.0888 -36.1176 269° West  Level FlightAware Approximate
07:19PM 60.0833 -36.6333 262° West 460 529 32,000  Level Gander Center
07:20PM 60.0866 -36.3631 269° West  Level FlightAware Approximate
07:20PM 60.0833 -36.8833 270° West 450 518 32,000  Level Gander Center
07:21PM 60.0839 -36.6085 269° West  Level FlightAware Approximate
07:21PM 60.1000 -37.1167 278° West 450 518 32,000  Level Gander Center
07:22PM 60.0807 -36.8539 269° West  Level FlightAware Approximate
07:22PM 60.0833 -37.3667 262° West 450 518 32,000  Level Gander Center
07:23PM 60.0771 -37.0993 268° West  Level FlightAware Approximate
07:23PM 60.0833 -37.6167 270° West 450 518 32,000  Level Gander Center
07:24PM 60.0731 -37.3446 268° West  Level FlightAware Approximate
07:24PM 60.0667 -37.8667 262° West 450 518 32,000  Level Gander Center
07:25PM 60.0667 -38.1167 270° West 450 518 32,000  Level Gander Center
07:26PM 60.0667 -38.3667 270° West 450 518 32,000  Level Gander Center
07:27PM 60.0667 -38.6167 270° West 450 518 32,100  Climbing Gander Center
07:28PM 60.0500 -38.8667 263° West 450 518 32,100 -60 Level Gander Center
07:29PM 60.0333 -39.1167 263° West 450 518 32,000 -60 Descending Gander Center
07:30PM 60.0333 -39.3667 270° West 450 518 32,000  Level Gander Center
07:31PM 60.0167 -39.6167 263° West 450 518 32,000  Level Gander Center
07:32PM 60.0167 -39.8500 270° West 450 518 32,000  Level Gander Center
07:33PM 60.0333 -40.0833 278° West 450 518 32,000  Level Gander Center
07:34PM 60.0333 -40.3333 270° West 440 506 32,000  Level Gander Center
07:35PM 60.0333 -40.5667 270° West 440 506 32,000  Level Gander Center
07:36PM 60.0500 -40.8333 277° West 440 506 32,100  Climbing Gander Center
07:37PM 60.0500 -41.0667 270° West 440 506 32,100 -60 Level Gander Center
07:38PM 60.0500 -41.3167 270° West 440 506 32,000 -60 Descending Gander Center
07:39PM 60.0833 -41.5333 287° West 450 518 32,000  Level Gander Center
07:40PM 60.0833 -41.8167 270° West 450 518 32,000  Level Gander Center
07:41PM 60.0833 -42.0500 270° West 450 518 32,100  Climbing Gander Center
07:42PM 60.0833 -42.3000 270° West 440 506 32,000 -60 Descending Gander Center
07:43PM 60.1000 -42.5333 278° West 440 506 32,000  Level Gander Center
07:44PM 60.1000 -42.7667 270° West 440 506 32,000  Level Gander Center
07:45PM 60.1000 -43.0000 270° West 440 506 32,000  Level Gander Center
07:46PM 60.1000 -43.2833 270° West 440 506 32,000  Level Gander Center
07:47PM 60.1167 -43.5167 278° West 440 506 32,000  Level Gander Center
07:48PM 60.1000 -43.7500 262° West 440 506 32,000  Level Gander Center
07:49PM 60.1167 -43.9833 278° West 440 506 32,100  Climbing Gander Center
07:50PM 60.1167 -44.2333 270° West 440 506 32,100  Level Gander Center
07:51PM 60.1167 -44.5000 270° West 440 506 32,100 -60 Level Gander Center
07:52PM 60.1167 -44.7500 270° West 440 506 32,000 -60 Descending Gander Center
07:53PM 60.1167 -44.9833 270° West 440 506 32,000  Level Gander Center
07:54PM 60.1167 -45.2167 270° West 440 506 32,000  Level Gander Center
07:55PM 60.1167 -45.4500 270° West 440 506 32,000  Level Gander Center
07:56PM 60.1167 -45.7000 270° West 430 495 32,000  Level Gander Center
07:57PM 60.1167 -45.9333 270° West 430 495 32,000  Level Gander Center
07:58PM 60.1167 -46.1667 270° West 440 506 32,000  Level Gander Center
07:59PM 60.1000 -46.4167 262° West 440 506 32,000  Level Gander Center
08:00PM 60.1167 -46.6500 278° West 430 495 32,000  Level Gander Center
08:01PM 60.1000 -46.8833 262° West 440 506 32,100  Climbing Gander Center
08:02PM 60.1000 -47.1333 270° West 430 495 32,000 -60 Descending Gander Center
08:03PM 60.1000 -47.3667 270° West 440 506 32,000  Level Gander Center
08:04PM 60.0833 -47.6000 262° West 430 495 32,000  Level Gander Center
08:05PM 60.0833 -47.8500 270° West 440 506 32,000  Level Gander Center
08:06PM 60.0667 -48.0833 262° West 430 495 32,000  Level Gander Center
08:07PM 60.0833 -48.3167 278° West 430 495 32,000  Level Gander Center
08:08PM 60.0667 -48.5667 262° West 430 495 32,000  Level Gander Center
08:09PM 60.0500 -48.8000 262° West 430 495 32,000  Level Gander Center
08:10PM 60.0667 -49.0333 278° West 430 495 32,000  Level Gander Center
08:11PM 60.0500 -49.2833 263° West 430 495 32,000  Level Gander Center
08:12PM 60.0333 -49.5167 262° West 430 495 32,000  Level Gander Center
08:13PM 60.0333 -49.7500 270° West 430 495 32,000  Level Gander Center
08:14PM 60.0000 -50.0000 255° West 430 495 32,000  Level Gander Center
08:15PM 59.9667 -50.2167 253° West 430 495 32,000  Level Gander Center
08:16PM 59.9500 -50.4500 262° West 430 495 32,000  Level Gander Center
08:17PM 59.9167 -50.6667 253° West 430 495 32,000  Level Gander Center
08:18PM 59.8667 -50.8833 245° Southwest 420 483 32,000  Level Gander Center
08:19PM 59.8500 -51.1167 262° West 420 483 32,000  Level Gander Center
08:20PM 59.8000 -51.3333 245° Southwest 430 495 32,100  Climbing Gander Center
08:21PM 59.7667 -51.5833 255° West 430 495 32,100 -60 Level Gander Center
08:22PM 59.7333 -51.8167 254° West 430 495 32,000 -60 Descending Gander Center
08:23PM 59.6833 -52.0333 246° West 430 495 32,000  Level Gander Center
08:24PM 59.6500 -52.2667 254° West 430 495 32,000  Level Gander Center
08:25PM 59.6000 -52.4833 246° West 420 483 32,000  Level Gander Center
08:26PM 59.5667 -52.7000 253° West 420 483 32,000  Level Gander Center
08:27PM 59.5333 -52.9333 254° West 430 495 32,000  Level Gander Center
08:28PM 59.5000 -53.1333 252° West 430 495 32,100  Climbing Gander Center
08:29PM 59.4500 -53.3833 249° West 430 495 32,100 -60 Level Gander Center
08:30PM 59.4167 -53.5833 252° West 430 495 32,000 -60 Descending Gander Center
08:31PM 59.3833 -53.8167 254° West 430 495 32,000  Level Gander Center
08:32PM 59.3333 -54.0333 246° West 430 495 32,000  Level Gander Center
08:33PM 59.2833 -54.2333 244° Southwest 430 495 32,000  Level Gander Center
08:34PM 59.2500 -54.4667 254° West 420 483 32,000  Level Gander Center
08:37PM 59.1500 -55.0500 252° West 440 506 32,100  Climbing Gander Center
08:38PM 59.1000 -55.2500 244° Southwest 430 495 32,100 -60 Level Gander Center
08:39PM 59.0500 -55.4500 244° Southwest 430 495 32,000 -60 Descending Gander Center
08:40PM 59.0000 -55.6833 247° West 430 495 32,000  Level Gander Center
08:41PM 58.9667 -55.8833 252° West 430 495 32,000  Level Gander Center
08:42PM 58.9167 -56.1167 248° West 430 495 32,000  Level Gander Center
08:43PM 58.8833 -56.3167 252° West 430 495 32,000  Level Gander Center
08:44PM 58.8167 -56.5500 241° Southwest 430 495 32,000  Level Gander Center
08:45PM 58.7833 -56.7500 252° West 430 495 32,000  Level Gander Center
08:46PM 58.7333 -56.9500 244° Southwest 430 495 32,000  Level Gander Center
08:47PM 58.6667 -57.1500 237° Southwest 430 495 32,000  Level Gander Center
08:48PM 58.6000 -57.3500 237° Southwest 430 495 32,100  Climbing Gander Center
08:49PM 58.5333 -57.5500 237° Southwest 430 495 32,100 -60 Level Gander Center
08:50PM 58.4667 -57.7500 238° Southwest 440 506 32,000 -60 Descending Gander Center
08:51PM 58.4167 -57.9333 243° Southwest 440 506 32,000  Level Gander Center
08:52PM 58.3500 -58.1333 238° Southwest 440 506 32,000  Level Gander Center
08:53PM 58.2833 -58.3333 238° Southwest 440 506 32,000  Level Gander Center
08:54PM 58.2000 -58.5333 232° Southwest 440 506 32,000 180 Level Gander Center
08:55PM 58.1500 -58.7167 243° Southwest 440 506 32,400 780 Climbing Gander Center
08:56PM 58.0833 -58.9167 238° Southwest 440 506 33,600 1,020 Climbing Gander Center
08:57PM 58.0167 -59.1167 238° Southwest 440 506 34,500 960 Climbing Gander Center
08:58PM 57.9333 -59.3000 229° Southwest 440 506 35,600 720 Climbing Gander Center
08:59PM 57.8667 -59.5000 238° Southwest 440 506 36,000 180 Climbing Gander Center
09:00PM 57.8167 -59.6833 243° Southwest 440 506 36,000  Level Gander Center
09:01PM 57.7500 -59.8833 238° Southwest 440 506 36,000  Level Gander Center
09:02PM 57.6667 -60.0667 230° Southwest 440 506 36,000  Level Gander Center
09:03PM 57.6000 -60.2500 236° Southwest 450 518 36,000  Level Gander Center
09:04PM 57.5333 -60.4500 238° Southwest 450 518 36,000  Level Gander Center
09:05PM 57.4667 -60.6333 236° Southwest 450 518 36,000  Level Gander Center
09:06PM 57.4000 -60.8167 236° Southwest 440 506 36,000  Level Gander Center
09:07PM 57.3167 -61.0000 230° Southwest 440 506 36,000  Level Gander Center
09:08PM 57.2500 -61.1833 236° Southwest 450 518 36,000  Level Gander Center
09:09PM 57.1833 -61.3667 236° Southwest 450 518 36,000  Level Gander Center
09:10PM 57.1000 -61.5667 233° Southwest 450 518 36,000  Level Gander Center
09:11PM 57.0333 -61.7500 236° Southwest 450 518 36,000  Level Gander Center
09:12PM 56.9667 -61.9500 239° Southwest 450 518 36,000  Level Gander Center
09:13PM 56.8833 -62.1333 230° Southwest 450 518 36,000  Level Gander Center
09:14PM 56.8167 -62.2833 231° Southwest 450 518 36,000  Level Montreal Center
09:15PM 56.7333 -62.4667 230° Southwest 440 506 36,000  Level Montreal Center
09:16PM 56.6667 -62.6500 237° Southwest 450 518 36,000  Level Montreal Center
09:17PM 56.5833 -62.8333 231° Southwest 450 518 36,000  Level Montreal Center
09:18PM 56.5167 -63.0000 234° Southwest 450 518 36,000  Level Montreal Center
09:19PM 56.4333 -63.1833 231° Southwest 460 529 36,000  Level Montreal Center
09:20PM 56.3667 -63.4000 241° Southwest 460 529 36,000  Level Montreal Center
09:21PM 56.2833 -63.5833 231° Southwest 460 529 36,000  Level Montreal Center
09:22PM 56.2000 -63.7500 228° Southwest 450 518 36,000  Level Montreal Center
09:23PM 56.1333 -63.9667 241° Southwest 460 529 36,000  Level Montreal Center
09:24PM 56.0500 -64.1333 228° Southwest 460 529 36,000  Level Montreal Center
09:25PM 55.9667 -64.3167 231° Southwest 460 529 36,000  Level Montreal Center
09:26PM 55.8833 -64.4833 228° Southwest 470 541 36,000  Level Montreal Center
09:27PM 55.8167 -64.7000 241° Southwest 470 541 36,000  Level Montreal Center
09:28PM 55.7167 -64.8667 223° Southwest 470 541 36,000  Level Montreal Center
09:29PM 55.6500 -65.0333 235° Southwest 470 541 36,000  Level Montreal Center
09:30PM 55.5667 -65.2167 231° Southwest 470 541 36,000  Level Montreal Center
09:31PM 55.4833 -65.3833 229° Southwest 470 541 36,000  Level Montreal Center
09:32PM 55.4167 -65.5833 240° Southwest 460 529 36,000  Level Montreal Center
09:33PM 55.3167 -65.7500 224° Southwest 470 541 36,000  Level Montreal Center
09:34PM 55.2333 -65.9333 231° Southwest 470 541 36,000  Level Montreal Center
09:35PM 55.1500 -66.1333 234° Southwest 460 529 36,000  Level Montreal Center
09:36PM 55.0667 -66.3333 234° Southwest 470 541 36,000  Level Montreal Center
09:37PM 54.9833 -66.5000 229° Southwest 480 552 36,000  Level Gander Center
09:37PM 54.9833 -66.5000 229° Southwest 490 564 36,000  Level Montreal Center
09:38PM 54.9000 -66.6667 229° Southwest 470 541 36,000  Level Montreal Center
09:39PM 54.8167 -66.8333 229° Southwest 470 541 36,000  Level Montreal Center
09:40PM 54.7333 -67.0167 232° Southwest 480 552 36,000  Level Montreal Center
09:41PM 54.6333 -67.1833 224° Southwest 460 529 36,000  Level Montreal Center
09:42PM 54.5667 -67.3833 240° Southwest 470 541 36,000  Level Montreal Center
09:43PM 54.4833 -67.5500 229° Southwest 480 552 36,000  Level Montreal Center
09:44PM 54.3833 -67.7167 224° Southwest 480 552 36,000  Level Montreal Center
09:45PM 54.3000 -67.9000 232° Southwest 480 552 36,000  Level Montreal Center
09:46PM 54.2167 -68.0667 230° Southwest 480 552 36,000  Level Montreal Center
09:47PM 54.1167 -68.2333 224° Southwest 480 552 36,000  Level Montreal Center
09:48PM 54.0500 -68.4167 238° Southwest 480 552 36,000  Level Montreal Center
09:49PM 53.9500 -68.5667 221° Southwest 480 552 36,000  Level Montreal Center
09:50PM 53.8667 -68.7667 235° Southwest 480 552 36,100  Climbing Montreal Center
09:51PM 53.7667 -68.9167 222° Southwest 480 552 36,100 -60 Level Montreal Center
09:52PM 53.6833 -69.0833 230° Southwest 480 552 36,000 -60 Descending Montreal Center
09:53PM 53.5833 -69.2667 227° Southwest 480 552 36,000  Level Montreal Center
09:54PM 53.5000 -69.4167 227° Southwest 480 552 36,000  Level Montreal Center
09:55PM 53.4167 -69.6000 233° Southwest 480 552 36,000  Level Montreal Center
09:56PM 53.3333 -69.7500 227° Southwest 480 552 36,000  Level Montreal Center
09:57PM 53.2333 -69.9333 228° Southwest 480 552 36,000  Level Montreal Center
09:58PM 53.1500 -70.1000 230° Southwest 480 552 36,100  Climbing Montreal Center
09:59PM 53.0500 -70.2667 225° Southwest 480 552 36,100  Level Montreal Center
10:00PM 52.9500 -70.4333 225° Southwest 490 564 36,100 -60 Level Montreal Center
10:01PM 52.8667 -70.6000 230° Southwest 490 564 36,000 -60 Descending Montreal Center
10:02PM 52.7667 -70.7500 222° Southwest 480 552 36,000  Level Montreal Center
10:03PM 52.6833 -70.9333 233° Southwest 490 564 36,000  Level Montreal Center
10:04PM 52.5833 -71.0833 222° Southwest 480 552 36,000  Level Montreal Center
10:05PM 52.4833 -71.2667 228° Southwest 480 552 36,000  Level Montreal Center
10:06PM 52.4167 -71.4167 234° Southwest 480 552 36,000  Level Montreal Center
10:07PM 52.3167 -71.5833 226° Southwest 490 564 36,100  Climbing Montreal Center
10:08PM 52.2167 -71.7333 223° Southwest 490 564 36,100  Level Montreal Center
10:09PM 52.1167 -71.9000 226° Southwest 490 564 36,100  Level Montreal Center
10:10PM 52.0333 -72.0500 228° Southwest 500 575 36,100 -60 Level Montreal Center
10:11PM 51.9333 -72.2167 226° Southwest 490 564 36,000 -60 Descending Montreal Center
10:12PM 51.8333 -72.3667 223° Southwest 490 564 36,000  Level Montreal Center
10:13PM 51.7333 -72.5333 226° Southwest 480 552 36,000  Level Montreal Center
10:14PM 51.6500 -72.6833 228° Southwest 480 552 36,000  Level Montreal Center
10:15PM 51.5500 -72.8500 226° Southwest 490 564 36,100  Climbing Montreal Center
10:16PM 51.4500 -73.0167 226° Southwest 490 564 36,100  Level Montreal Center
10:17PM 51.3500 -73.1667 223° Southwest 500 575 36,100 -60 Level Montreal Center
10:18PM 51.2500 -73.3333 226° Southwest 500 575 36,000 -60 Descending Montreal Center
10:19PM 51.1667 -73.4667 225° Southwest 490 564 36,000  Level Montreal Center
10:20PM 51.0667 -73.6333 226° Southwest 490 564 36,000  Level Montreal Center
10:21PM 50.9667 -73.8000 226° Southwest 490 564 36,000  Level Montreal Center
10:22PM 50.8667 -73.9333 220° Southwest 490 564 36,000  Level Montreal Center
10:23PM 50.7667 -74.1000 227° Southwest 490 564 36,000  Level Montreal Center
10:24PM 50.6667 -74.2667 227° Southwest 500 575 36,000  Level Montreal Center
10:25PM 50.5667 -74.4000 220° Southwest 500 575 36,000  Level Montreal Center
10:26PM 50.4667 -74.5333 220° Southwest 490 564 36,000  Level Montreal Center
10:27PM 50.3667 -74.7000 227° Southwest 490 564 36,000  Level Montreal Center
10:28PM 50.2667 -74.8667 227° Southwest 490 564 36,000  Level Montreal Center
10:29PM 50.1667 -75.0000 221° Southwest 500 575 36,000  Level Montreal Center
10:30PM 50.0667 -75.1500 224° Southwest 500 575 36,100  Climbing Montreal Center
10:31PM 49.9500 -75.3167 223° Southwest 500 575 36,000 -60 Descending Montreal Center
10:32PM 49.8667 -75.4500 226° Southwest 500 575 36,000  Level Montreal Center
10:33PM 49.7500 -75.6000 220° Southwest 500 575 36,000  Level Montreal Center
10:34PM 49.6500 -75.7500 224° Southwest 500 575 36,000  Level Montreal Center
10:35PM 49.5500 -75.9167 227° Southwest 500 575 36,000  Level Montreal Center
10:36PM 49.4500 -76.0500 221° Southwest 500 575 36,000  Level Montreal Center
10:37PM 49.3500 -76.2000 224° Southwest 500 575 36,000  Level Montreal Center
10:38PM 49.2500 -76.3500 224° Southwest 500 575 36,000  Level Montreal Center
10:39PM 49.1333 -76.4833 217° Southwest 500 575 36,000  Level Montreal Center
10:40PM 49.0500 -76.6333 230° Southwest 500 575 36,000  Level Montreal Center
10:41PM 48.9500 -76.7833 225° Southwest 500 575 36,000  Level Montreal Center
10:42PM 48.8333 -76.9333 220° Southwest 500 575 36,100  Climbing Montreal Center
10:43PM 48.7333 -77.0667 221° Southwest 510 587 36,000 -60 Descending Montreal Center
10:44PM 48.6167 -77.2167 220° Southwest 510 587 36,000  Level Montreal Center
10:49PM 48.0590 -77.9100 220° Southwest 535 616 36,100  Climbing FlightAware
10:50PM 47.9920 -77.9630 208° Southwest 535 616 36,100  Level FlightAware
10:51PM 47.8730 -78.0530 207° Southwest 537 618 36,100  Level FlightAware
10:51PM 47.7870 -78.1180 207° Southwest 536 617 36,100  Level FlightAware
10:52PM 47.7120 -78.1750 207° Southwest 536 617 36,100 -60 Level FlightAware
10:53PM 47.5030 -78.3340 207° Southwest 533 613 36,000 -60 Descending FlightAware
10:54PM 47.4420 -78.3790 207° Southwest 532 612 36,000  Level FlightAware
10:55PM 47.3270 -78.4650 207° Southwest 530 610 36,000  Level FlightAware
10:55PM 47.2580 -78.5170 207° Southwest 530 610 36,000  Level FlightAware
10:56PM 47.1210 -78.6170 206° Southwest 530 610 36,000  Level FlightAware
10:57PM 47.0420 -78.6770 207° Southwest 530 610 36,000  Level FlightAware
10:58PM 46.9270 -78.7600 206° Southwest 532 612 36,000  Level FlightAware
10:58PM 46.8380 -78.8260 207° Southwest 533 613 36,000  Level FlightAware
10:59PM 46.7800 -78.8680 206° Southwest 532 612 36,000  Level FlightAware
11:00PM 46.6430 -78.9690 207° Southwest 536 617 36,000  Level FlightAware
11:01PM 46.5230 -79.0550 206° Southwest 536 617 36,000  Level FlightAware
11:02PM 46.4060 -79.1390 206° Southwest 538 619 36,000  Level FlightAware
11:03PM 46.2840 -79.2250 206° Southwest 539 620 36,000  Level FlightAware
11:03PM 46.1670 -79.3100 207° Southwest 540 621 36,000  Level FlightAware
11:04PM 46.0520 -79.3910 206° Southwest 540 621 36,100  Climbing FlightAware
11:05PM 45.9800 -79.4420 206° Southwest 540 621 36,000 -120 Descending FlightAware
11:05PM 45.9000 -79.4980 206° Southwest 538 619 36,000  Level FlightAware
11:06PM 45.7820 -79.5800 206° Southwest 538 619 36,000  Level FlightAware
11:07PM 45.6840 -79.6480 206° Southwest 537 618 36,000  Level FlightAware
11:08PM 45.5660 -79.7310 206° Southwest 537 618 36,000  Level FlightAware
11:08PM 45.5200 -79.7630 206° Southwest 536 617 36,000  Level FlightAware
11:09PM 45.3900 -79.8530 206° Southwest 534 615 36,000  Level FlightAware
11:10PM 45.2580 -79.9430 206° Southwest 534 615 36,000  Level FlightAware
11:11PM 45.1430 -80.0240 206° Southwest 529 609 36,000  Level FlightAware
11:12PM 45.0720 -80.0990 217° Southwest 520 598 36,000  Level FlightAware
11:12PM 45.0110 -80.1720 220° Southwest 522 601 36,000  Level FlightAware
11:13PM 44.9080 -80.2920 220° Southwest 522 601 36,000  Level FlightAware
11:14PM 44.8510 -80.3590 220° Southwest 522 601 36,000  Level FlightAware
11:14PM 44.7770 -80.4470 220° Southwest 521 600 36,000  Level FlightAware
11:15PM 44.7250 -80.5080 220° Southwest 521 600 36,000  Level FlightAware
11:16PM 44.6180 -80.6250 218° Southwest 527 606 36,000  Level FlightAware
11:16PM 44.5600 -80.6750 212° Southwest 529 609 36,000  Level FlightAware
11:17PM 44.4450 -80.7730 211° Southwest 528 608 36,000  Level FlightAware
11:18PM 44.3440 -80.8590 211° Southwest 528 608 36,000  Level FlightAware
11:19PM 44.2630 -80.9270 211° Southwest 527 606 36,000  Level FlightAware
11:19PM 44.1610 -81.0140 211° Southwest 529 609 36,000  Level FlightAware
11:20PM 44.0880 -81.0740 211° Southwest 530 610 36,000 60 Level FlightAware
11:21PM 43.9750 -81.1690 211° Southwest 531 611 36,100  Climbing FlightAware
11:22PM 43.8660 -81.2610 211° Southwest 526 605 36,100 -120 Level FlightAware
11:22PM 43.8080 -81.3080 210° Southwest 525 604 36,000 -120 Descending FlightAware
11:23PM 43.7520 -81.3540 211° Southwest 525 604 36,000  Level FlightAware
11:24PM 43.6260 -81.4580 211° Southwest 522 601 36,000  Level FlightAware
11:25PM 43.5040 -81.5590 211° Southwest 517 595 36,000  Level FlightAware
11:26PM 43.3990 -81.6440 210° Southwest 516 594 36,000  Level FlightAware
11:26PM 43.3110 -81.7170 211° Southwest 516 594 36,000  Level FlightAware
11:27PM 43.2600 -81.7570 210° Southwest 516 594 36,000  Level FlightAware
11:28PM 43.1370 -81.8580 211° Southwest 518 596 36,000  Level FlightAware
11:28PM 43.0460 -81.9310 210° Southwest 523 602 36,100 60 Climbing FlightAware
11:29PM 42.9390 -82.0170 210° Southwest 526 605 36,100  Level FlightAware
11:30PM 42.8880 -82.0580 211° Southwest 526 605 36,100 -120 Level FlightAware
11:31PM 42.7710 -82.1500 210° Southwest 524 603 36,000 -60 Descending FlightAware
11:32PM 42.6570 -82.2420 211° Southwest 523 602 36,000  Level FlightAware
11:32PM 42.5940 -82.2920 210° Southwest 522 601 36,000  Level FlightAware
11:33PM 42.4550 -82.4020 210° Southwest 520 598 36,000  Level FlightAware
11:34PM 42.3770 -82.4630 210° Southwest 520 598 36,000  Level FlightAware
11:34PM 42.3050 -82.5190 210° Southwest 519 597 36,000  Level FlightAware
11:35PM 42.1870 -82.6120 210° Southwest 520 598 36,000  Level FlightAware
11:36PM 42.0710 -82.7020 210° Southwest 520 598 36,000  Level FlightAware
11:37PM 41.9530 -82.7930 210° Southwest 519 597 36,000  Level FlightAware
11:38PM 41.8180 -82.8970 210° Southwest 520 598 36,000  Level FlightAware
11:39PM 41.7270 -82.9670 210° Southwest 520 598 36,000  Level FlightAware
11:40PM 41.6240 -83.0460 210° Southwest 520 598 36,000  Level FlightAware
11:41PM 41.4890 -83.1490 210° Southwest 521 600 36,000  Level FlightAware
11:41PM 41.4290 -83.1950 210° Southwest 520 598 36,000  Level FlightAware
11:42PM 41.3220 -83.2760 210° Southwest 521 600 36,000  Level FlightAware
11:43PM 41.2290 -83.3460 210° Southwest 520 598 36,000  Level FlightAware
11:44PM 41.1210 -83.4270 209° Southwest 522 601 36,000  Level FlightAware
11:45PM 40.9950 -83.5220 210° Southwest 522 601 36,000 60 Level FlightAware
11:45PM 40.9300 -83.5700 209° Southwest 522 601 36,100 60 Climbing FlightAware
11:46PM 40.8560 -83.6250 209° Southwest 521 600 36,100 -120 Level FlightAware
11:46PM 40.7890 -83.6750 209° Southwest 521 600 36,000 -120 Descending FlightAware
11:47PM 40.7280 -83.7200 209° Southwest 519 597 36,000  Level FlightAware
11:48PM 40.6050 -83.8110 209° Southwest 517 595 36,000  Level FlightAware
11:49PM 40.4780 -83.9040 209° Southwest 514 592 36,000  Level FlightAware
11:49PM 40.4290 -83.9400 209° Southwest 515 593 36,000  Level FlightAware
11:50PM 40.3310 -84.0120 209° Southwest 515 593 36,000  Level FlightAware
11:51PM 40.2270 -84.0760 205° Southwest 522 601 36,000  Level FlightAware
11:52PM 40.1290 -84.1270 202° Southwest 522 601 36,000 -120 Level FlightAware
11:52PM 40.0580 -84.1650 202° Southwest 521 600 35,900 -780 Descending FlightAware
11:53PM 39.9280 -84.2340 202° Southwest 519 597 34,900 -1,080 Descending FlightAware
11:54PM 39.8130 -84.2940 202° Southwest 515 593 34,000 -1,140 Descending FlightAware
11:55PM 39.7420 -84.3310 202° Southwest 518 596 33,400 -1,140 Descending FlightAware
11:56PM 39.5890 -84.4100 202° Southwest 533 613 32,100 -1,200 Descending FlightAware
11:57PM 39.4730 -84.4700 202° Southwest 540 621 31,000 -1,680 Descending FlightAware
11:57PM 39.3430 -84.5370 202° Southwest 551 634 29,200 -2,100 Descending FlightAware
11:58PM 39.2140 -84.6020 201° Southwest 531 611 27,300 -2,100 Descending FlightAware
11:59PM 39.0927 -84.6630 201° Southwest 500 575 25,200 -2,400 Descending FlightAware ADS-B (KCVG)
12:00AM 38.9958 -84.7246 206° Southwest 485 558 23,200 -2,880 Descending FlightAware ADS-B (KCVG)
12:01AM 38.9428 -84.7773 218° Southwest 466 536 21,800 -2,340 Descending FlightAware ADS-B (KCVG)
12:01AM 38.8816 -84.8334 215° Southwest 443 510 20,600 -2,520 Descending FlightAware ADS-B (KCVG)
12:02AM 38.8367 -84.8767 217° Southwest 434 499 18,900 -2,880 Descending FlightAware ADS-B (KCVG)
12:02AM 38.7691 -84.9427 217° Southwest 426 490 17,200 -2,340 Descending FlightAware ADS-B (KCVG)
12:03AM 38.6740 -85.0340 217° Southwest 388 447 15,100 -1,920 Descending FlightAware
12:04AM 38.6060 -85.1010 218° Southwest 361 415 13,800 -1,740 Descending FlightAware
12:05AM 38.5440 -85.1620 218° Southwest 351 404 12,300 -1,980 Descending FlightAware
12:06AM 38.5190 -85.2260 243° Southwest 327 376 11,100 -1,980 Descending FlightAware
12:06AM 38.5100 -85.2600 251° West 327 376 10,500 -1,680 Descending FlightAware
12:07AM 38.4910 -85.3270 250° West 319 367 9,500 -1,260 Descending FlightAware
12:07AM 38.4800 -85.3650 250° West 318 366 9,300 -360 Descending FlightAware
12:07AM 38.4670 -85.3940 240° Southwest 298 343 9,300 -660 Level FlightAware
12:08AM 38.4430 -85.4500 241° Southwest 280 322 8,700 -1,200 Descending FlightAware
12:08AM 38.4260 -85.4890 241° Southwest 276 318 8,000 -1,440 Descending FlightAware
12:09AM 38.4080 -85.5350 243° Southwest 272 313 7,300 -1,500 Descending FlightAware
12:09AM 38.3870 -85.5760 237° Southwest 273 314 6,500 -1,500 Descending FlightAware
12:10AM 38.3670 -85.6120 235° Southwest 267 307 5,900 -1,200 Descending FlightAware
12:10AM 38.3460 -85.6470 233° Southwest 265 305 5,400 -660 Descending FlightAware
12:11AM 38.3320 -85.6720 234° Southwest 264 304 5,400 -120 Level FlightAware
12:11AM 38.3080 -85.7150 235° Southwest 264 304 5,300  Descending FlightAware
12:12AM 38.2830 -85.7490 227° Southwest 268 308 5,400  Climbing FlightAware
12:12AM 38.2580 -85.7810 225° Southwest 267 307 5,300  Descending FlightAware
12:12AM 38.2370 -85.8070 224° Southwest 267 307 5,400  Climbing FlightAware
12:13AM 38.2190 -85.8290 224° Southwest 268 308 5,300 -120 Descending FlightAware
12:13AM 38.1810 -85.8590 212° Southwest 250 288 5,300 60 Level FlightAware
12:14AM 38.1440 -85.8460 165° South 236 272 5,400  Climbing FlightAware
12:15AM 38.1100 -85.8370 168° South 238 274 5,300 -120 Descending FlightAware
12:15AM 38.0880 -85.8310 168° South 238 274 5,300 -420 Level FlightAware
12:15AM 38.0580 -85.8230 168° South 238 274 5,000 -900 Descending FlightAware
12:16AM 38.0360 -85.8170 168° South 237 273 4,600 -720 Descending FlightAware
12:16AM 38.0030 -85.8080 168° South 229 264 4,400 -360 Descending FlightAware
12:17AM 37.9780 -85.8010 168° South 227 261 4,300 -120 Descending FlightAware
12:17AM 37.9450 -85.7920 168° South 229 264 4,300  Level FlightAware
12:18AM 37.9220 -85.7860 168° South 231 266 4,300  Level FlightAware
12:18AM 37.9030 -85.7790 164° South 233 268 4,300 -660 Level FlightAware
12:18AM 37.8730 -85.7650 160° South 223 257 3,800 -960 Descending FlightAware
12:19AM 37.8520 -85.7460 144° Southeast 206 237 3,400 -480 Descending FlightAware
12:19AM 37.8460 -85.7070 101° East 182 209 3,300 -120 Descending FlightAware
12:20AM 37.8580 -85.6850 55° Northeast 174 200 3,300  Level FlightAware
12:20AM 37.8810 -85.6760 17° North 173 199 3,300  Level FlightAware
12:21AM 37.9020 -85.6680 17° North 173 199 3,300  Level FlightAware
12:21AM 37.9190 -85.6690 357° North 175 201 3,300  Level FlightAware
12:22AM 37.9420 -85.6730 352° North 178 205 3,300  Level FlightAware
12:22AM 37.9610 -85.6750 355° North 177 204 3,300  Level FlightAware
12:22AM 37.9810 -85.6810 347° North 181 208 3,300 -540 Level FlightAware
12:23AM 38.0000 -85.6870 346° North 169 194 2,900 -900 Descending FlightAware
12:23AM 38.0220 -85.6940 346° North 152 175 2,500 -780 Descending FlightAware
12:24AM 38.0430 -85.7010 345° North 147 169 2,100 -720 Descending FlightAware
12:24AM 38.0620 -85.7080 344° North 143 165 1,800 -780 Descending FlightAware
12:25AM 38.0750 -85.7120 346° North 141 162 1,500 -780 Descending FlightAware
12:25AM 38.0880 -85.7160 346° North 141 162 1,300 -780 Descending FlightAware
12:25AM 38.1050 -85.7220 344° North 140 161 900 -840 Descending FlightAware
12:26AM 38.1250 -85.7280 347° North 145 167 500 -840 Descending FlightAware
12:26AM 38.1440 -85.7340 346° North 149 171 100 -900 Descending FlightAware
12:27AM 38.1570 -85.7390 343° North 155 178 -300 Descending FlightAware
12:27AM 38.1730 -85.7440 346° North 76 87  Level FlightAware